sensor_id;sensor_type;location;lat;lon;timestamp;P1;durP1;ratioP1;P2;durP2;ratioP2
5684;SDS011;2865;53.114;9.130;2023-08-20T00:01:50;18.90;;;5.57;;
5684;SDS011;2865;53.114;9.130;2023-08-20T00:04:15;5.80;;;5.20;;
5684;SDS011;2865;53.114;9.130;2023-08-20T00:06:40;5.60;;;5.07;;
5684;SDS011;2865;53.114;9.130;2023-08-20T00:09:06;8.10;;;5.47;;
5684;SDS011;2865;53.114;9.130;2023-08-20T00:11:32;6.73;;;5.50;;
5684;SDS011;2865;53.114;9.130;2023-08-20T00:13:58;7.70;;;5.43;;
5684;SDS011;2865;53.114;9.130;2023-08-20T00:16:24;6.23;;;5.63;;
5684;SDS011;2865;53.114;9.130;2023-08-20T00:18:51;9.60;;;6.37;;
5684;SDS011;2865;53.114;9.130;2023-08-20T00:21:17;10.07;;;5.90;;
5684;SDS011;2865;53.114;9.130;2023-08-20T00:23:44;6.73;;;5.87;;
5684;SDS011;2865;53.114;9.130;2023-08-20T00:26:10;8.50;;;6.13;;
5684;SDS011;2865;53.114;9.130;2023-08-20T00:28:36;5.23;;;4.80;;
5684;SDS011;2865;53.114;9.130;2023-08-20T00:31:01;6.10;;;5.50;;
5684;SDS011;2865;53.114;9.130;2023-08-20T00:33:27;5.90;;;4.63;;
5684;SDS011;2865;53.114;9.130;2023-08-20T00:35:52;7.37;;;5.13;;
5684;SDS011;2865;53.114;9.130;2023-08-20T00:38:18;8.40;;;5.90;;
5684;SDS011;2865;53.114;9.130;2023-08-20T00:40:43;8.87;;;6.37;;
5684;SDS011;2865;53.114;9.130;2023-08-20T00:43:09;7.23;;;5.43;;
5684;SDS011;2865;53.114;9.130;2023-08-20T00:45:35;8.47;;;5.43;;
5684;SDS011;2865;53.114;9.130;2023-08-20T00:48:01;13.77;;;6.93;;
5684;SDS011;2865;53.114;9.130;2023-08-20T00:50:26;8.60;;;6.37;;
5684;SDS011;2865;53.114;9.130;2023-08-20T00:52:51;7.03;;;5.87;;
5684;SDS011;2865;53.114;9.130;2023-08-20T00:55:17;8.30;;;5.80;;
5684;SDS011;2865;53.114;9.130;2023-08-20T00:57:42;6.93;;;5.77;;
5684;SDS011;2865;53.114;9.130;2023-08-20T01:00:08;7.93;;;5.87;;
5684;SDS011;2865;53.114;9.130;2023-08-20T01:02:35;8.90;;;6.73;;
5684;SDS011;2865;53.114;9.130;2023-08-20T01:05:00;11.13;;;6.60;;
5684;SDS011;2865;53.114;9.130;2023-08-20T01:07:29;7.77;;;6.30;;
5684;SDS011;2865;53.114;9.130;2023-08-20T01:09:57;7.60;;;5.90;;
5684;SDS011;2865;53.114;9.130;2023-08-20T01:12:27;9.10;;;6.40;;
5684;SDS011;2865;53.114;9.130;2023-08-20T01:14:52;8.37;;;6.60;;
5684;SDS011;2865;53.114;9.130;2023-08-20T01:17:18;6.97;;;6.27;;
5684;SDS011;2865;53.114;9.130;2023-08-20T01:19:43;7.30;;;5.90;;
5684;SDS011;2865;53.114;9.130;2023-08-20T01:22:15;9.93;;;5.97;;
5684;SDS011;2865;53.114;9.130;2023-08-20T01:25:32;8.90;;;5.77;;
5684;SDS011;2865;53.114;9.130;2023-08-20T01:27:49;6.63;;;4.80;;
5684;SDS011;2865;53.114;9.130;2023-08-20T01:30:18;5.97;;;5.40;;
5684;SDS011;2865;53.114;9.130;2023-08-20T01:32:43;8.50;;;7.40;;
5684;SDS011;2865;53.114;9.130;2023-08-20T01:35:11;7.27;;;6.13;;
5684;SDS011;2865;53.114;9.130;2023-08-20T01:37:34;7.10;;;5.27;;
5684;SDS011;2865;53.114;9.130;2023-08-20T01:39:59;5.30;;;4.50;;
5684;SDS011;2865;53.114;9.130;2023-08-20T01:42:25;6.20;;;5.60;;
5684;SDS011;2865;53.114;9.130;2023-08-20T01:44:50;4.87;;;4.10;;
5684;SDS011;2865;53.114;9.130;2023-08-20T01:47:16;4.97;;;4.47;;
5684;SDS011;2865;53.114;9.130;2023-08-20T01:49:41;6.63;;;6.00;;
5684;SDS011;2865;53.114;9.130;2023-08-20T01:52:06;5.93;;;5.33;;
5684;SDS011;2865;53.114;9.130;2023-08-20T01:54:32;8.43;;;6.03;;
5684;SDS011;2865;53.114;9.130;2023-08-20T01:56:57;7.40;;;4.70;;
5684;SDS011;2865;53.114;9.130;2023-08-20T01:59:23;6.33;;;5.60;;
5684;SDS011;2865;53.114;9.130;2023-08-20T02:01:48;7.43;;;6.00;;
5684;SDS011;2865;53.114;9.130;2023-08-20T02:04:14;5.77;;;5.27;;
5684;SDS011;2865;53.114;9.130;2023-08-20T02:06:41;6.17;;;5.30;;
5684;SDS011;2865;53.114;9.130;2023-08-20T02:09:06;7.97;;;6.67;;
5684;SDS011;2865;53.114;9.130;2023-08-20T02:11:32;9.17;;;6.37;;
5684;SDS011;2865;53.114;9.130;2023-08-20T02:13:57;7.83;;;6.03;;
5684;SDS011;2865;53.114;9.130;2023-08-20T02:16:22;5.60;;;5.10;;
5684;SDS011;2865;53.114;9.130;2023-08-20T02:18:48;7.50;;;5.30;;
5684;SDS011;2865;53.114;9.130;2023-08-20T02:21:13;5.77;;;4.30;;
5684;SDS011;2865;53.114;9.130;2023-08-20T02:23:39;4.00;;;3.67;;
5684;SDS011;2865;53.114;9.130;2023-08-20T02:26:04;3.53;;;3.23;;
5684;SDS011;2865;53.114;9.130;2023-08-20T02:28:29;4.90;;;4.40;;
5684;SDS011;2865;53.114;9.130;2023-08-20T02:30:56;4.50;;;3.53;;
5684;SDS011;2865;53.114;9.130;2023-08-20T02:33:29;6.53;;;4.60;;
5684;SDS011;2865;53.114;9.130;2023-08-20T02:35:55;5.07;;;4.57;;
5684;SDS011;2865;53.114;9.130;2023-08-20T02:38:20;6.70;;;5.10;;
5684;SDS011;2865;53.114;9.130;2023-08-20T02:40:45;5.40;;;4.90;;
5684;SDS011;2865;53.114;9.130;2023-08-20T02:43:11;8.23;;;5.97;;
5684;SDS011;2865;53.114;9.130;2023-08-20T02:45:40;6.20;;;5.60;;
5684;SDS011;2865;53.114;9.130;2023-08-20T02:48:08;6.80;;;5.53;;
5684;SDS011;2865;53.114;9.130;2023-08-20T02:50:34;8.67;;;5.97;;
5684;SDS011;2865;53.114;9.130;2023-08-20T02:52:59;5.87;;;5.20;;
5684;SDS011;2865;53.114;9.130;2023-08-20T02:55:24;6.07;;;4.73;;
5684;SDS011;2865;53.114;9.130;2023-08-20T02:57:50;5.23;;;4.03;;
5684;SDS011;2865;53.114;9.130;2023-08-20T03:00:15;5.50;;;4.00;;
5684;SDS011;2865;53.114;9.130;2023-08-20T03:02:42;4.20;;;3.80;;
5684;SDS011;2865;53.114;9.130;2023-08-20T03:05:08;5.27;;;4.83;;
5684;SDS011;2865;53.114;9.130;2023-08-20T03:07:32;6.20;;;4.50;;
5684;SDS011;2865;53.114;9.130;2023-08-20T03:09:58;7.33;;;4.57;;
5684;SDS011;2865;53.114;9.130;2023-08-20T03:12:23;4.17;;;3.87;;
5684;SDS011;2865;53.114;9.130;2023-08-20T03:14:49;5.37;;;4.87;;
5684;SDS011;2865;53.114;9.130;2023-08-20T03:17:14;6.73;;;5.90;;
5684;SDS011;2865;53.114;9.130;2023-08-20T03:19:53;5.80;;;4.70;;
5684;SDS011;2865;53.114;9.130;2023-08-20T03:22:06;5.10;;;4.70;;
5684;SDS011;2865;53.114;9.130;2023-08-20T03:24:32;5.03;;;4.63;;
5684;SDS011;2865;53.114;9.130;2023-08-20T03:26:57;4.93;;;4.53;;
5684;SDS011;2865;53.114;9.130;2023-08-20T03:29:23;4.43;;;4.10;;
5684;SDS011;2865;53.114;9.130;2023-08-20T03:31:48;4.30;;;3.90;;
5684;SDS011;2865;53.114;9.130;2023-08-20T03:34:14;3.53;;;3.33;;
5684;SDS011;2865;53.114;9.130;2023-08-20T03:36:39;3.63;;;3.33;;
5684;SDS011;2865;53.114;9.130;2023-08-20T03:39:04;3.93;;;3.63;;
5684;SDS011;2865;53.114;9.130;2023-08-20T03:41:30;3.30;;;3.10;;
5684;SDS011;2865;53.114;9.130;2023-08-20T03:43:55;3.00;;;2.83;;
5684;SDS011;2865;53.114;9.130;2023-08-20T03:46:21;3.10;;;2.93;;
5684;SDS011;2865;53.114;9.130;2023-08-20T03:48:47;3.40;;;3.20;;
5684;SDS011;2865;53.114;9.130;2023-08-20T03:51:12;2.90;;;2.70;;
5684;SDS011;2865;53.114;9.130;2023-08-20T03:53:38;3.80;;;3.60;;
5684;SDS011;2865;53.114;9.130;2023-08-20T03:56:03;3.20;;;3.00;;
5684;SDS011;2865;53.114;9.130;2023-08-20T03:58:29;3.50;;;3.30;;
5684;SDS011;2865;53.114;9.130;2023-08-20T04:00:54;3.00;;;2.80;;
5684;SDS011;2865;53.114;9.130;2023-08-20T04:03:19;3.10;;;2.90;;
5684;SDS011;2865;53.114;9.130;2023-08-20T04:05:45;3.13;;;3.00;;
5684;SDS011;2865;53.114;9.130;2023-08-20T04:08:10;2.73;;;2.53;;
5684;SDS011;2865;53.114;9.130;2023-08-20T04:10:41;3.20;;;2.23;;
5684;SDS011;2865;53.114;9.130;2023-08-20T04:13:01;1.83;;;1.73;;
5684;SDS011;2865;53.114;9.130;2023-08-20T04:15:26;1.67;;;1.60;;
5684;SDS011;2865;53.114;9.130;2023-08-20T04:17:52;1.70;;;1.60;;
5684;SDS011;2865;53.114;9.130;2023-08-20T04:20:17;1.73;;;1.63;;
5684;SDS011;2865;53.114;9.130;2023-08-20T04:22:42;1.60;;;1.50;;
5684;SDS011;2865;53.114;9.130;2023-08-20T04:25:08;1.43;;;1.43;;
5684;SDS011;2865;53.114;9.130;2023-08-20T04:27:33;1.60;;;1.50;;
5684;SDS011;2865;53.114;9.130;2023-08-20T04:29:59;2.00;;;1.90;;
5684;SDS011;2865;53.114;9.130;2023-08-20T04:32:24;1.70;;;1.60;;
5684;SDS011;2865;53.114;9.130;2023-08-20T04:34:49;2.23;;;2.03;;
5684;SDS011;2865;53.114;9.130;2023-08-20T04:37:16;2.20;;;2.10;;
5684;SDS011;2865;53.114;9.130;2023-08-20T04:39:41;2.17;;;2.07;;
5684;SDS011;2865;53.114;9.130;2023-08-20T04:42:07;2.50;;;2.40;;
5684;SDS011;2865;53.114;9.130;2023-08-20T04:44:32;2.27;;;2.07;;
5684;SDS011;2865;53.114;9.130;2023-08-20T04:46:57;2.27;;;2.17;;
5684;SDS011;2865;53.114;9.130;2023-08-20T04:49:23;2.40;;;2.23;;
5684;SDS011;2865;53.114;9.130;2023-08-20T04:51:48;6.43;;;3.70;;
5684;SDS011;2865;53.114;9.130;2023-08-20T04:54:13;6.40;;;4.13;;
5684;SDS011;2865;53.114;9.130;2023-08-20T04:56:39;4.30;;;3.87;;
5684;SDS011;2865;53.114;9.130;2023-08-20T04:59:04;5.10;;;4.70;;
5684;SDS011;2865;53.114;9.130;2023-08-20T05:01:30;5.67;;;5.07;;
5684;SDS011;2865;53.114;9.130;2023-08-20T05:03:55;6.50;;;5.07;;
5684;SDS011;2865;53.114;9.130;2023-08-20T05:06:21;6.90;;;5.10;;
5684;SDS011;2865;53.114;9.130;2023-08-20T05:08:46;5.70;;;5.20;;
5684;SDS011;2865;53.114;9.130;2023-08-20T05:11:11;6.73;;;6.13;;
5684;SDS011;2865;53.114;9.130;2023-08-20T05:13:37;5.20;;;4.70;;
5684;SDS011;2865;53.114;9.130;2023-08-20T05:16:02;4.97;;;4.47;;
5684;SDS011;2865;53.114;9.130;2023-08-20T05:18:28;5.53;;;5.10;;
5684;SDS011;2865;53.114;9.130;2023-08-20T05:20:53;5.17;;;4.67;;
5684;SDS011;2865;53.114;9.130;2023-08-20T05:23:18;4.70;;;4.30;;
5684;SDS011;2865;53.114;9.130;2023-08-20T05:25:44;5.10;;;4.67;;
5684;SDS011;2865;53.114;9.130;2023-08-20T05:28:09;4.53;;;4.23;;
5684;SDS011;2865;53.114;9.130;2023-08-20T05:30:35;5.10;;;4.70;;
5684;SDS011;2865;53.114;9.130;2023-08-20T05:33:01;5.10;;;4.70;;
5684;SDS011;2865;53.114;9.130;2023-08-20T05:35:26;4.90;;;4.50;;
5684;SDS011;2865;53.114;9.130;2023-08-20T05:37:51;4.17;;;3.57;;
5684;SDS011;2865;53.114;9.130;2023-08-20T05:40:17;3.83;;;3.63;;
5684;SDS011;2865;53.114;9.130;2023-08-20T05:42:42;4.27;;;3.97;;
5684;SDS011;2865;53.114;9.130;2023-08-20T05:45:08;3.93;;;3.63;;
5684;SDS011;2865;53.114;9.130;2023-08-20T05:47:34;4.27;;;3.97;;
5684;SDS011;2865;53.114;9.130;2023-08-20T05:50:00;4.80;;;4.40;;
5684;SDS011;2865;53.114;9.130;2023-08-20T05:52:26;4.23;;;3.83;;
5684;SDS011;2865;53.114;9.130;2023-08-20T05:54:52;4.53;;;3.90;;
5684;SDS011;2865;53.114;9.130;2023-08-20T05:57:17;4.30;;;4.00;;
5684;SDS011;2865;53.114;9.130;2023-08-20T05:59:43;4.20;;;3.90;;
5684;SDS011;2865;53.114;9.130;2023-08-20T06:02:08;4.60;;;4.20;;
5684;SDS011;2865;53.114;9.130;2023-08-20T06:04:34;6.00;;;5.03;;
5684;SDS011;2865;53.114;9.130;2023-08-20T06:06:59;4.93;;;4.53;;
5684;SDS011;2865;53.114;9.130;2023-08-20T06:09:24;7.40;;;4.40;;
5684;SDS011;2865;53.114;9.130;2023-08-20T06:11:50;9.60;;;5.80;;
5684;SDS011;2865;53.114;9.130;2023-08-20T06:14:15;5.07;;;4.67;;
5684;SDS011;2865;53.114;9.130;2023-08-20T06:16:41;6.90;;;5.60;;
5684;SDS011;2865;53.114;9.130;2023-08-20T06:19:07;5.90;;;5.30;;
5684;SDS011;2865;53.114;9.130;2023-08-20T06:21:32;7.03;;;5.17;;
5684;SDS011;2865;53.114;9.130;2023-08-20T06:23:58;7.43;;;5.10;;
5684;SDS011;2865;53.114;9.130;2023-08-20T06:26:23;6.97;;;6.27;;
5684;SDS011;2865;53.114;9.130;2023-08-20T06:28:49;6.47;;;5.53;;
5684;SDS011;2865;53.114;9.130;2023-08-20T06:31:14;6.03;;;5.43;;
5684;SDS011;2865;53.114;9.130;2023-08-20T06:33:39;6.47;;;5.07;;
5684;SDS011;2865;53.114;9.130;2023-08-20T06:36:05;5.63;;;5.00;;
5684;SDS011;2865;53.114;9.130;2023-08-20T06:38:31;10.83;;;5.33;;
5684;SDS011;2865;53.114;9.130;2023-08-20T06:40:56;6.00;;;4.43;;
5684;SDS011;2865;53.114;9.130;2023-08-20T06:43:22;5.90;;;5.33;;
5684;SDS011;2865;53.114;9.130;2023-08-20T06:45:47;7.27;;;4.70;;
5684;SDS011;2865;53.114;9.130;2023-08-20T06:48:12;8.63;;;5.33;;
5684;SDS011;2865;53.114;9.130;2023-08-20T06:50:38;7.40;;;4.83;;
5684;SDS011;2865;53.114;9.130;2023-08-20T06:53:03;8.40;;;4.73;;
5684;SDS011;2865;53.114;9.130;2023-08-20T06:55:29;10.87;;;5.20;;
5684;SDS011;2865;53.114;9.130;2023-08-20T06:57:54;12.17;;;4.90;;
5684;SDS011;2865;53.114;9.130;2023-08-20T07:00:20;8.43;;;4.63;;
5684;SDS011;2865;53.114;9.130;2023-08-20T07:02:46;6.30;;;5.70;;
5684;SDS011;2865;53.114;9.130;2023-08-20T07:05:11;11.57;;;5.17;;
5684;SDS011;2865;53.114;9.130;2023-08-20T07:07:38;4.40;;;4.00;;
5684;SDS011;2865;53.114;9.130;2023-08-20T07:10:04;5.70;;;4.20;;
5684;SDS011;2865;53.114;9.130;2023-08-20T07:12:30;9.20;;;4.33;;
5684;SDS011;2865;53.114;9.130;2023-08-20T07:14:55;4.53;;;3.30;;
5684;SDS011;2865;53.114;9.130;2023-08-20T07:17:20;13.57;;;3.97;;
5684;SDS011;2865;53.114;9.130;2023-08-20T07:19:46;4.20;;;3.80;;
5684;SDS011;2865;53.114;9.130;2023-08-20T07:22:12;14.80;;;4.40;;
5684;SDS011;2865;53.114;9.130;2023-08-20T07:24:37;11.70;;;4.00;;
5684;SDS011;2865;53.114;9.130;2023-08-20T07:27:03;5.63;;;3.20;;
5684;SDS011;2865;53.114;9.130;2023-08-20T07:29:28;3.90;;;2.87;;
5684;SDS011;2865;53.114;9.130;2023-08-20T07:31:54;9.30;;;3.47;;
5684;SDS011;2865;53.114;9.130;2023-08-20T07:34:19;7.37;;;2.50;;
5684;SDS011;2865;53.114;9.130;2023-08-20T07:36:45;4.90;;;2.60;;
5684;SDS011;2865;53.114;9.130;2023-08-20T07:39:10;5.27;;;2.77;;
5684;SDS011;2865;53.114;9.130;2023-08-20T07:41:36;3.67;;;2.10;;
5684;SDS011;2865;53.114;9.130;2023-08-20T07:44:01;6.40;;;2.67;;
5684;SDS011;2865;53.114;9.130;2023-08-20T07:46:27;5.17;;;2.50;;
5684;SDS011;2865;53.114;9.130;2023-08-20T07:48:52;8.67;;;2.87;;
5684;SDS011;2865;53.114;9.130;2023-08-20T07:51:17;6.67;;;2.90;;
5684;SDS011;2865;53.114;9.130;2023-08-20T07:53:43;3.97;;;2.13;;
5684;SDS011;2865;53.114;9.130;2023-08-20T07:56:09;4.87;;;3.00;;
5684;SDS011;2865;53.114;9.130;2023-08-20T07:58:35;8.10;;;3.27;;
5684;SDS011;2865;53.114;9.130;2023-08-20T08:01:00;6.87;;;2.43;;
5684;SDS011;2865;53.114;9.130;2023-08-20T08:03:27;5.00;;;2.67;;
5684;SDS011;2865;53.114;9.130;2023-08-20T08:05:52;5.40;;;2.03;;
5684;SDS011;2865;53.114;9.130;2023-08-20T08:08:18;4.13;;;1.80;;
5684;SDS011;2865;53.114;9.130;2023-08-20T08:10:43;6.50;;;2.27;;
5684;SDS011;2865;53.114;9.130;2023-08-20T08:13:10;6.93;;;2.27;;
5684;SDS011;2865;53.114;9.130;2023-08-20T08:15:35;5.93;;;2.00;;
5684;SDS011;2865;53.114;9.130;2023-08-20T08:18:00;6.00;;;2.23;;
5684;SDS011;2865;53.114;9.130;2023-08-20T08:20:26;6.07;;;2.50;;
5684;SDS011;2865;53.114;9.130;2023-08-20T08:22:51;3.80;;;1.87;;
5684;SDS011;2865;53.114;9.130;2023-08-20T08:25:17;6.97;;;2.27;;
5684;SDS011;2865;53.114;9.130;2023-08-20T08:27:42;7.97;;;2.13;;
5684;SDS011;2865;53.114;9.130;2023-08-20T08:30:08;3.80;;;1.70;;
5684;SDS011;2865;53.114;9.130;2023-08-20T08:32:33;4.77;;;2.63;;
5684;SDS011;2865;53.114;9.130;2023-08-20T08:34:58;5.43;;;2.20;;
5684;SDS011;2865;53.114;9.130;2023-08-20T08:37:24;7.00;;;2.40;;
5684;SDS011;2865;53.114;9.130;2023-08-20T08:39:49;5.63;;;2.33;;
5684;SDS011;2865;53.114;9.130;2023-08-20T08:42:15;3.43;;;2.17;;
5684;SDS011;2865;53.114;9.130;2023-08-20T08:44:40;7.43;;;2.07;;
5684;SDS011;2865;53.114;9.130;2023-08-20T08:47:08;3.17;;;2.10;;
5684;SDS011;2865;53.114;9.130;2023-08-20T08:49:33;4.60;;;2.17;;
5684;SDS011;2865;53.114;9.130;2023-08-20T08:51:58;3.90;;;1.73;;
5684;SDS011;2865;53.114;9.130;2023-08-20T08:54:24;4.40;;;2.73;;
5684;SDS011;2865;53.114;9.130;2023-08-20T08:56:49;5.20;;;2.63;;
5684;SDS011;2865;53.114;9.130;2023-08-20T08:59:14;7.07;;;2.20;;
5684;SDS011;2865;53.114;9.130;2023-08-20T09:01:40;5.33;;;2.20;;
5684;SDS011;2865;53.114;9.130;2023-08-20T09:04:05;7.37;;;2.30;;
5684;SDS011;2865;53.114;9.130;2023-08-20T09:09:16;7.37;;;1.97;;
5684;SDS011;2865;53.114;9.130;2023-08-20T09:11:42;5.90;;;3.10;;
5684;SDS011;2865;53.114;9.130;2023-08-20T09:14:08;5.73;;;2.43;;
5684;SDS011;2865;53.114;9.130;2023-08-20T09:16:34;5.07;;;2.10;;
5684;SDS011;2865;53.114;9.130;2023-08-20T09:19:00;6.33;;;2.10;;
5684;SDS011;2865;53.114;9.130;2023-08-20T09:21:26;4.37;;;2.30;;
5684;SDS011;2865;53.114;9.130;2023-08-20T09:23:51;8.87;;;2.77;;
5684;SDS011;2865;53.114;9.130;2023-08-20T09:26:16;5.00;;;2.47;;
5684;SDS011;2865;53.114;9.130;2023-08-20T09:28:43;5.50;;;1.77;;
5684;SDS011;2865;53.114;9.130;2023-08-20T09:31:08;4.40;;;2.33;;
5684;SDS011;2865;53.114;9.130;2023-08-20T09:33:34;8.30;;;2.27;;
5684;SDS011;2865;53.114;9.130;2023-08-20T09:36:00;4.30;;;2.03;;
5684;SDS011;2865;53.114;9.130;2023-08-20T09:38:25;5.07;;;2.00;;
5684;SDS011;2865;53.114;9.130;2023-08-20T09:40:52;4.87;;;2.30;;
5684;SDS011;2865;53.114;9.130;2023-08-20T09:43:16;5.50;;;2.20;;
5684;SDS011;2865;53.114;9.130;2023-08-20T09:45:42;5.23;;;2.13;;
5684;SDS011;2865;53.114;9.130;2023-08-20T09:48:07;5.67;;;1.80;;
5684;SDS011;2865;53.114;9.130;2023-08-20T09:50:33;4.17;;;1.70;;
5684;SDS011;2865;53.114;9.130;2023-08-20T09:53:00;8.63;;;2.60;;
5684;SDS011;2865;53.114;9.130;2023-08-20T09:55:26;3.50;;;2.00;;
5684;SDS011;2865;53.114;9.130;2023-08-20T09:57:49;4.47;;;2.27;;
5684;SDS011;2865;53.114;9.130;2023-08-20T10:00:14;4.90;;;2.50;;
5684;SDS011;2865;53.114;9.130;2023-08-20T10:02:42;4.20;;;1.93;;
5684;SDS011;2865;53.114;9.130;2023-08-20T10:05:07;6.57;;;2.30;;
5684;SDS011;2865;53.114;9.130;2023-08-20T10:07:33;5.10;;;2.40;;
5684;SDS011;2865;53.114;9.130;2023-08-20T10:09:59;5.63;;;3.20;;
5684;SDS011;2865;53.114;9.130;2023-08-20T10:12:23;5.13;;;2.23;;
5684;SDS011;2865;53.114;9.130;2023-08-20T10:14:49;5.80;;;2.97;;
5684;SDS011;2865;53.114;9.130;2023-08-20T10:17:14;4.17;;;2.10;;
5684;SDS011;2865;53.114;9.130;2023-08-20T10:19:40;9.53;;;4.27;;
5684;SDS011;2865;53.114;9.130;2023-08-20T10:22:06;7.33;;;2.07;;
5684;SDS011;2865;53.114;9.130;2023-08-20T10:27:09;6.77;;;2.70;;
5684;SDS011;2865;53.114;9.130;2023-08-20T10:29:37;6.37;;;3.10;;
5684;SDS011;2865;53.114;9.130;2023-08-20T10:32:04;4.20;;;2.40;;
5684;SDS011;2865;53.114;9.130;2023-08-20T10:34:32;8.17;;;2.27;;
5684;SDS011;2865;53.114;9.130;2023-08-20T10:36:57;6.00;;;2.17;;
5684;SDS011;2865;53.114;9.130;2023-08-20T10:39:23;5.40;;;2.10;;
5684;SDS011;2865;53.114;9.130;2023-08-20T10:41:49;5.10;;;2.70;;
5684;SDS011;2865;53.114;9.130;2023-08-20T10:44:15;4.37;;;2.37;;
5684;SDS011;2865;53.114;9.130;2023-08-20T10:46:49;6.53;;;2.20;;
5684;SDS011;2865;53.114;9.130;2023-08-20T10:49:07;4.70;;;2.57;;
5684;SDS011;2865;53.114;9.130;2023-08-20T10:51:34;6.67;;;2.97;;
5684;SDS011;2865;53.114;9.130;2023-08-20T10:54:07;5.20;;;2.87;;
5684;SDS011;2865;53.114;9.130;2023-08-20T10:56:40;7.73;;;2.70;;
5684;SDS011;2865;53.114;9.130;2023-08-20T10:59:14;5.23;;;2.10;;
5684;SDS011;2865;53.114;9.130;2023-08-20T11:01:43;8.20;;;2.60;;
5684;SDS011;2865;53.114;9.130;2023-08-20T11:04:08;2.93;;;2.43;;
5684;SDS011;2865;53.114;9.130;2023-08-20T11:06:33;10.40;;;3.40;;
5684;SDS011;2865;53.114;9.130;2023-08-20T11:08:59;6.43;;;2.67;;
5684;SDS011;2865;53.114;9.130;2023-08-20T11:11:25;7.50;;;2.70;;
5684;SDS011;2865;53.114;9.130;2023-08-20T11:13:50;4.57;;;2.17;;
5684;SDS011;2865;53.114;9.130;2023-08-20T11:16:17;16.37;;;3.17;;
5684;SDS011;2865;53.114;9.130;2023-08-20T11:18:42;5.87;;;2.83;;
5684;SDS011;2865;53.114;9.130;2023-08-20T11:21:07;5.87;;;2.37;;
5684;SDS011;2865;53.114;9.130;2023-08-20T11:23:34;8.97;;;3.40;;
5684;SDS011;2865;53.114;9.130;2023-08-20T11:25:59;8.07;;;2.87;;
5684;SDS011;2865;53.114;9.130;2023-08-20T11:28:25;4.10;;;2.70;;
5684;SDS011;2865;53.114;9.130;2023-08-20T11:30:50;7.43;;;2.77;;
5684;SDS011;2865;53.114;9.130;2023-08-20T11:33:16;5.53;;;2.10;;
5684;SDS011;2865;53.114;9.130;2023-08-20T11:35:41;5.67;;;3.57;;
5684;SDS011;2865;53.114;9.130;2023-08-20T11:38:06;5.27;;;2.83;;
5684;SDS011;2865;53.114;9.130;2023-08-20T11:40:32;10.90;;;2.27;;
5684;SDS011;2865;53.114;9.130;2023-08-20T11:42:57;6.40;;;2.40;;
5684;SDS011;2865;53.114;9.130;2023-08-20T11:45:23;4.90;;;2.10;;
5684;SDS011;2865;53.114;9.130;2023-08-20T11:47:48;4.40;;;2.10;;
5684;SDS011;2865;53.114;9.130;2023-08-20T11:50:14;8.27;;;3.20;;
5684;SDS011;2865;53.114;9.130;2023-08-20T11:52:40;4.70;;;2.73;;
5684;SDS011;2865;53.114;9.130;2023-08-20T11:55:06;6.63;;;2.60;;
5684;SDS011;2865;53.114;9.130;2023-08-20T11:57:32;4.47;;;2.77;;
5684;SDS011;2865;53.114;9.130;2023-08-20T11:59:59;4.23;;;2.10;;
5684;SDS011;2865;53.114;9.130;2023-08-20T12:02:25;6.37;;;2.83;;
5684;SDS011;2865;53.114;9.130;2023-08-20T12:04:51;7.20;;;2.90;;
5684;SDS011;2865;53.114;9.130;2023-08-20T12:07:16;3.60;;;2.60;;
5684;SDS011;2865;53.114;9.130;2023-08-20T12:09:42;2.87;;;2.27;;
5684;SDS011;2865;53.114;9.130;2023-08-20T12:12:07;7.97;;;2.77;;
5684;SDS011;2865;53.114;9.130;2023-08-20T12:14:33;6.30;;;3.77;;
5684;SDS011;2865;53.114;9.130;2023-08-20T12:16:58;6.67;;;2.83;;
5684;SDS011;2865;53.114;9.130;2023-08-20T12:19:24;4.70;;;3.27;;
5684;SDS011;2865;53.114;9.130;2023-08-20T12:21:49;9.67;;;3.23;;
5684;SDS011;2865;53.114;9.130;2023-08-20T12:24:15;7.40;;;2.73;;
5684;SDS011;2865;53.114;9.130;2023-08-20T12:26:40;4.40;;;3.10;;
5684;SDS011;2865;53.114;9.130;2023-08-20T12:29:06;8.33;;;3.60;;
5684;SDS011;2865;53.114;9.130;2023-08-20T12:31:33;9.17;;;4.03;;
5684;SDS011;2865;53.114;9.130;2023-08-20T12:33:58;6.43;;;2.90;;
5684;SDS011;2865;53.114;9.130;2023-08-20T12:36:23;5.23;;;2.70;;
5684;SDS011;2865;53.114;9.130;2023-08-20T12:38:50;5.83;;;2.93;;
5684;SDS011;2865;53.114;9.130;2023-08-20T12:41:15;5.43;;;2.97;;
5684;SDS011;2865;53.114;9.130;2023-08-20T12:43:41;5.07;;;2.27;;
5684;SDS011;2865;53.114;9.130;2023-08-20T12:46:07;5.90;;;2.50;;
5684;SDS011;2865;53.114;9.130;2023-08-20T12:48:33;4.10;;;2.70;;
5684;SDS011;2865;53.114;9.130;2023-08-20T12:50:58;7.33;;;3.17;;
5684;SDS011;2865;53.114;9.130;2023-08-20T12:53:23;5.97;;;2.47;;
5684;SDS011;2865;53.114;9.130;2023-08-20T12:55:49;5.90;;;2.10;;
5684;SDS011;2865;53.114;9.130;2023-08-20T12:58:14;6.63;;;3.53;;
5684;SDS011;2865;53.114;9.130;2023-08-20T13:00:40;4.67;;;2.20;;
5684;SDS011;2865;53.114;9.130;2023-08-20T13:03:05;6.90;;;2.93;;
5684;SDS011;2865;53.114;9.130;2023-08-20T13:05:32;2.30;;;2.10;;
5684;SDS011;2865;53.114;9.130;2023-08-20T13:07:58;8.47;;;3.20;;
5684;SDS011;2865;53.114;9.130;2023-08-20T13:10:24;9.37;;;2.50;;
5684;SDS011;2865;53.114;9.130;2023-08-20T13:12:52;8.63;;;2.77;;
5684;SDS011;2865;53.114;9.130;2023-08-20T13:15:17;2.30;;;1.97;;
5684;SDS011;2865;53.114;9.130;2023-08-20T13:17:45;6.43;;;3.00;;
5684;SDS011;2865;53.114;9.130;2023-08-20T13:20:10;2.67;;;2.20;;
5684;SDS011;2865;53.114;9.130;2023-08-20T13:22:36;7.00;;;2.57;;
5684;SDS011;2865;53.114;9.130;2023-08-20T13:25:01;7.03;;;2.47;;
5684;SDS011;2865;53.114;9.130;2023-08-20T13:27:27;4.23;;;2.20;;
5684;SDS011;2865;53.114;9.130;2023-08-20T13:29:52;4.60;;;2.10;;
5684;SDS011;2865;53.114;9.130;2023-08-20T13:32:18;7.53;;;2.20;;
5684;SDS011;2865;53.114;9.130;2023-08-20T13:34:43;8.27;;;2.70;;
5684;SDS011;2865;53.114;9.130;2023-08-20T13:37:08;7.90;;;2.50;;
5684;SDS011;2865;53.114;9.130;2023-08-20T13:39:34;5.67;;;2.40;;
5684;SDS011;2865;53.114;9.130;2023-08-20T13:41:59;6.67;;;3.00;;
5684;SDS011;2865;53.114;9.130;2023-08-20T13:44:24;6.83;;;2.53;;
5684;SDS011;2865;53.114;9.130;2023-08-20T13:46:50;4.77;;;2.30;;
5684;SDS011;2865;53.114;9.130;2023-08-20T13:49:15;3.10;;;2.20;;
5684;SDS011;2865;53.114;9.130;2023-08-20T13:51:41;4.77;;;2.47;;
5684;SDS011;2865;53.114;9.130;2023-08-20T13:54:06;3.57;;;2.00;;
5684;SDS011;2865;53.114;9.130;2023-08-20T13:56:31;5.23;;;2.20;;
5684;SDS011;2865;53.114;9.130;2023-08-20T13:58:57;4.13;;;2.10;;
5684;SDS011;2865;53.114;9.130;2023-08-20T14:01:22;4.60;;;2.50;;
5684;SDS011;2865;53.114;9.130;2023-08-20T14:03:47;3.83;;;2.37;;
5684;SDS011;2865;53.114;9.130;2023-08-20T14:06:13;5.23;;;1.90;;
5684;SDS011;2865;53.114;9.130;2023-08-20T14:08:38;4.50;;;1.90;;
5684;SDS011;2865;53.114;9.130;2023-08-20T14:11:04;3.83;;;2.10;;
5684;SDS011;2865;53.114;9.130;2023-08-20T14:13:29;11.23;;;3.23;;
5684;SDS011;2865;53.114;9.130;2023-08-20T14:15:55;5.40;;;2.03;;
5684;SDS011;2865;53.114;9.130;2023-08-20T14:18:20;5.40;;;2.60;;
5684;SDS011;2865;53.114;9.130;2023-08-20T14:20:46;5.20;;;2.40;;
5684;SDS011;2865;53.114;9.130;2023-08-20T14:23:12;4.53;;;2.27;;
5684;SDS011;2865;53.114;9.130;2023-08-20T14:25:37;4.73;;;2.33;;
5684;SDS011;2865;53.114;9.130;2023-08-20T14:28:03;2.10;;;1.90;;
5684;SDS011;2865;53.114;9.130;2023-08-20T14:30:28;2.33;;;1.70;;
5684;SDS011;2865;53.114;9.130;2023-08-20T14:32:54;4.43;;;2.50;;
5684;SDS011;2865;53.114;9.130;2023-08-20T14:35:19;8.40;;;2.00;;
5684;SDS011;2865;53.114;9.130;2023-08-20T14:37:45;4.27;;;2.13;;
5684;SDS011;2865;53.114;9.130;2023-08-20T14:40:10;4.30;;;2.23;;
5684;SDS011;2865;53.114;9.130;2023-08-20T14:42:36;3.83;;;2.30;;
5684;SDS011;2865;53.114;9.130;2023-08-20T14:45:01;4.17;;;1.93;;
5684;SDS011;2865;53.114;9.130;2023-08-20T14:47:28;7.73;;;2.33;;
5684;SDS011;2865;53.114;9.130;2023-08-20T14:49:53;5.10;;;3.00;;
5684;SDS011;2865;53.114;9.130;2023-08-20T14:52:19;4.13;;;2.00;;
5684;SDS011;2865;53.114;9.130;2023-08-20T14:54:44;3.80;;;1.93;;
5684;SDS011;2865;53.114;9.130;2023-08-20T14:57:10;7.20;;;2.60;;
5684;SDS011;2865;53.114;9.130;2023-08-20T14:59:35;2.37;;;1.87;;
5684;SDS011;2865;53.114;9.130;2023-08-20T15:02:01;4.00;;;2.27;;
5684;SDS011;2865;53.114;9.130;2023-08-20T15:04:26;3.70;;;2.13;;
5684;SDS011;2865;53.114;9.130;2023-08-20T15:06:51;5.83;;;2.93;;
5684;SDS011;2865;53.114;9.130;2023-08-20T15:09:17;8.53;;;2.90;;
5684;SDS011;2865;53.114;9.130;2023-08-20T15:11:43;4.23;;;2.17;;